sensor_id;sensor_type;location;lat;lon;timestamp;temperature;humidity
22698;DHT22;11516;51.612;7.510;2022-08-05T00:01:20;21.20;99.90
22698;DHT22;11516;51.612;7.510;2022-08-05T00:03:47;21.10;99.90
22698;DHT22;11516;51.612;7.510;2022-08-05T00:06:14;21.00;99.90
22698;DHT22;11516;51.612;7.510;2022-08-05T00:08:41;21.00;99.90
22698;DHT22;11516;51.612;7.510;2022-08-05T00:11:12;20.90;99.90
22698;DHT22;11516;51.612;7.510;2022-08-05T00:13:40;20.90;99.90
22698;DHT22;11516;51.612;7.510;2022-08-05T00:16:08;20.90;99.90
22698;DHT22;11516;51.612;7.510;2022-08-05T00:18:35;20.90;99.90
22698;DHT22;11516;51.612;7.510;2022-08-05T00:21:00;20.90;99.90
22698;DHT22;11516;51.612;7.510;2022-08-05T00:23:26;20.80;99.90
22698;DHT22;11516;51.612;7.510;2022-08-05T00:25:51;20.90;99.90
22698;DHT22;11516;51.612;7.510;2022-08-05T00:28:17;20.90;99.90
22698;DHT22;11516;51.612;7.510;2022-08-05T00:30:43;21.10;99.90
22698;DHT22;11516;51.612;7.510;2022-08-05T00:33:08;20.90;99.90
22698;DHT22;11516;51.612;7.510;2022-08-05T00:35:34;20.90;99.90
22698;DHT22;11516;51.612;7.510;2022-08-05T00:38:00;20.80;99.90
22698;DHT22;11516;51.612;7.510;2022-08-05T00:40:26;20.80;99.90
22698;DHT22;11516;51.612;7.510;2022-08-05T00:42:53;20.90;99.90
22698;DHT22;11516;51.612;7.510;2022-08-05T00:45:19;20.90;99.90
22698;DHT22;11516;51.612;7.510;2022-08-05T00:47:44;20.90;99.90
22698;DHT22;11516;51.612;7.510;2022-08-05T00:50:10;20.90;99.90
22698;DHT22;11516;51.612;7.510;2022-08-05T00:52:36;20.90;99.90
22698;DHT22;11516;51.612;7.510;2022-08-05T00:55:02;20.80;99.90
22698;DHT22;11516;51.612;7.510;2022-08-05T00:57:28;20.90;99.90
22698;DHT22;11516;51.612;7.510;2022-08-05T00:59:54;20.80;99.90
22698;DHT22;11516;51.612;7.510;2022-08-05T01:02:19;20.80;99.90
22698;DHT22;11516;51.612;7.510;2022-08-05T01:04:45;20.70;99.90
22698;DHT22;11516;51.612;7.510;2022-08-05T01:07:11;20.70;99.90
22698;DHT22;11516;51.612;7.510;2022-08-05T01:09:36;20.70;99.90
22698;DHT22;11516;51.612;7.510;2022-08-05T01:12:05;20.80;99.90
22698;DHT22;11516;51.612;7.510;2022-08-05T01:14:44;20.80;99.90
22698;DHT22;11516;51.612;7.510;2022-08-05T01:17:26;21.00;99.90
22698;DHT22;11516;51.612;7.510;2022-08-05T01:20:31;20.90;99.90
22698;DHT22;11516;51.612;7.510;2022-08-05T01:23:21;20.80;99.90
22698;DHT22;11516;51.612;7.510;2022-08-05T01:26:46;20.70;99.90
22698;DHT22;11516;51.612;7.510;2022-08-05T01:29:30;20.50;99.90
22698;DHT22;11516;51.612;7.510;2022-08-05T01:32:00;20.60;99.90
22698;DHT22;11516;51.612;7.510;2022-08-05T01:34:33;20.60;99.90
22698;DHT22;11516;51.612;7.510;2022-08-05T01:37:28;20.50;99.90
22698;DHT22;11516;51.612;7.510;2022-08-05T01:39:57;20.70;99.90
22698;DHT22;11516;51.612;7.510;2022-08-05T01:42:24;20.60;99.90
22698;DHT22;11516;51.612;7.510;2022-08-05T01:44:51;20.60;99.90
22698;DHT22;11516;51.612;7.510;2022-08-05T01:47:21;20.70;99.90
22698;DHT22;11516;51.612;7.510;2022-08-05T01:49:49;20.60;99.90
22698;DHT22;11516;51.612;7.510;2022-08-05T01:52:18;20.60;99.90
22698;DHT22;11516;51.612;7.510;2022-08-05T01:54:49;20.60;99.90
22698;DHT22;11516;51.612;7.510;2022-08-05T01:57:23;20.60;99.90
22698;DHT22;11516;51.612;7.510;2022-08-05T01:59:50;20.70;99.90
22698;DHT22;11516;51.612;7.510;2022-08-05T02:02:19;20.70;99.90
22698;DHT22;11516;51.612;7.510;2022-08-05T02:04:45;20.70;99.90
22698;DHT22;11516;51.612;7.510;2022-08-05T02:07:13;20.70;99.90
22698;DHT22;11516;51.612;7.510;2022-08-05T02:09:38;20.70;99.90
22698;DHT22;11516;51.612;7.510;2022-08-05T02:12:09;20.70;99.90
22698;DHT22;11516;51.612;7.510;2022-08-05T02:14:42;20.60;99.90
22698;DHT22;11516;51.612;7.510;2022-08-05T02:17:47;20.70;99.90
22698;DHT22;11516;51.612;7.510;2022-08-05T02:20:19;20.60;99.90
22698;DHT22;11516;51.612;7.510;2022-08-05T02:22:49;20.50;99.90
22698;DHT22;11516;51.612;7.510;2022-08-05T02:25:24;20.40;99.90
22698;DHT22;11516;51.612;7.510;2022-08-05T02:27:51;20.40;99.90
22698;DHT22;11516;51.612;7.510;2022-08-05T02:30:19;20.40;99.90
22698;DHT22;11516;51.612;7.510;2022-08-05T02:32:48;20.30;99.90
22698;DHT22;11516;51.612;7.510;2022-08-05T02:35:18;20.30;99.90
22698;DHT22;11516;51.612;7.510;2022-08-05T02:37:44;20.00;99.90
22698;DHT22;11516;51.612;7.510;2022-08-05T02:40:11;20.00;99.90
22698;DHT22;11516;51.612;7.510;2022-08-05T02:42:38;20.00;99.90
22698;DHT22;11516;51.612;7.510;2022-08-05T02:45:06;20.10;99.90
22698;DHT22;11516;51.612;7.510;2022-08-05T02:47:33;19.90;99.90
22698;DHT22;11516;51.612;7.510;2022-08-05T02:50:02;20.00;99.90
22698;DHT22;11516;51.612;7.510;2022-08-05T02:52:28;20.00;99.90
22698;DHT22;11516;51.612;7.510;2022-08-05T02:54:54;19.90;99.90
22698;DHT22;11516;51.612;7.510;2022-08-05T02:57:21;19.90;99.90
22698;DHT22;11516;51.612;7.510;2022-08-05T02:59:48;20.00;99.90
22698;DHT22;11516;51.612;7.510;2022-08-05T03:02:18;20.00;99.90
22698;DHT22;11516;51.612;7.510;2022-08-05T03:04:44;20.00;99.90
22698;DHT22;11516;51.612;7.510;2022-08-05T03:07:11;19.80;99.90
22698;DHT22;11516;51.612;7.510;2022-08-05T03:09:40;19.90;99.90
22698;DHT22;11516;51.612;7.510;2022-08-05T03:12:06;19.70;99.90
22698;DHT22;11516;51.612;7.510;2022-08-05T03:14:32;19.70;99.90
22698;DHT22;11516;51.612;7.510;2022-08-05T03:16:59;19.80;99.90
22698;DHT22;11516;51.612;7.510;2022-08-05T03:19:25;19.90;99.90
22698;DHT22;11516;51.612;7.510;2022-08-05T03:21:50;19.80;99.90
22698;DHT22;11516;51.612;7.510;2022-08-05T03:24:18;19.80;99.90
22698;DHT22;11516;51.612;7.510;2022-08-05T03:26:44;19.60;99.90
22698;DHT22;11516;51.612;7.510;2022-08-05T03:29:10;19.50;99.90
22698;DHT22;11516;51.612;7.510;2022-08-05T03:31:36;19.50;99.90
22698;DHT22;11516;51.612;7.510;2022-08-05T03:34:03;19.40;99.90
22698;DHT22;11516;51.612;7.510;2022-08-05T03:36:30;19.40;99.90
22698;DHT22;11516;51.612;7.510;2022-08-05T03:38:56;19.40;99.90
22698;DHT22;11516;51.612;7.510;2022-08-05T03:41:21;19.50;99.90
22698;DHT22;11516;51.612;7.510;2022-08-05T03:43:47;19.50;99.90
22698;DHT22;11516;51.612;7.510;2022-08-05T03:46:13;19.50;99.90
22698;DHT22;11516;51.612;7.510;2022-08-05T03:48:38;19.40;99.90
22698;DHT22;11516;51.612;7.510;2022-08-05T03:51:18;19.40;99.90
22698;DHT22;11516;51.612;7.510;2022-08-05T03:54:12;19.40;99.90
22698;DHT22;11516;51.612;7.510;2022-08-05T03:56:41;19.40;99.90
22698;DHT22;11516;51.612;7.510;2022-08-05T03:59:19;19.30;99.90
22698;DHT22;11516;51.612;7.510;2022-08-05T04:01:46;19.20;99.90
22698;DHT22;11516;51.612;7.510;2022-08-05T04:04:14;19.10;99.90
22698;DHT22;11516;51.612;7.510;2022-08-05T04:06:40;19.00;99.90
22698;DHT22;11516;51.612;7.510;2022-08-05T04:09:06;18.80;99.90
22698;DHT22;11516;51.612;7.510;2022-08-05T04:11:33;18.80;99.90
22698;DHT22;11516;51.612;7.510;2022-08-05T04:14:00;18.60;99.90
22698;DHT22;11516;51.612;7.510;2022-08-05T04:16:27;18.50;99.90
22698;DHT22;11516;51.612;7.510;2022-08-05T04:18:53;18.40;99.90
22698;DHT22;11516;51.612;7.510;2022-08-05T04:21:19;18.30;99.90
22698;DHT22;11516;51.612;7.510;2022-08-05T04:23:45;18.30;99.90
22698;DHT22;11516;51.612;7.510;2022-08-05T04:26:12;18.30;99.90
22698;DHT22;11516;51.612;7.510;2022-08-05T04:28:37;18.20;99.90
22698;DHT22;11516;51.612;7.510;2022-08-05T04:31:03;18.20;99.90
22698;DHT22;11516;51.612;7.510;2022-08-05T04:33:29;18.20;99.90
22698;DHT22;11516;51.612;7.510;2022-08-05T04:35:54;18.20;99.90
22698;DHT22;11516;51.612;7.510;2022-08-05T04:38:20;18.20;99.90
22698;DHT22;11516;51.612;7.510;2022-08-05T04:40:45;18.20;99.90
22698;DHT22;11516;51.612;7.510;2022-08-05T04:43:11;18.20;99.90
22698;DHT22;11516;51.612;7.510;2022-08-05T04:45:36;18.20;99.90
22698;DHT22;11516;51.612;7.510;2022-08-05T04:48:13;18.40;99.90
22698;DHT22;11516;51.612;7.510;2022-08-05T04:50:40;18.40;99.90
22698;DHT22;11516;51.612;7.510;2022-08-05T04:53:07;18.40;99.90
22698;DHT22;11516;51.612;7.510;2022-08-05T04:55:34;18.50;99.90
22698;DHT22;11516;51.612;7.510;2022-08-05T04:57:59;18.50;99.90
22698;DHT22;11516;51.612;7.510;2022-08-05T05:00:25;18.40;99.90
22698;DHT22;11516;51.612;7.510;2022-08-05T05:02:50;18.50;99.90
22698;DHT22;11516;51.612;7.510;2022-08-05T05:05:16;18.60;99.90
22698;DHT22;11516;51.612;7.510;2022-08-05T05:07:42;18.50;99.90
22698;DHT22;11516;51.612;7.510;2022-08-05T05:10:07;18.50;99.90
22698;DHT22;11516;51.612;7.510;2022-08-05T05:12:33;18.30;99.90
22698;DHT22;11516;51.612;7.510;2022-08-05T05:14:58;18.40;99.90
22698;DHT22;11516;51.612;7.510;2022-08-05T05:17:24;18.40;99.90
22698;DHT22;11516;51.612;7.510;2022-08-05T05:19:52;18.40;99.90
22698;DHT22;11516;51.612;7.510;2022-08-05T05:22:19;18.20;99.90
22698;DHT22;11516;51.612;7.510;2022-08-05T05:24:45;18.20;99.90
22698;DHT22;11516;51.612;7.510;2022-08-05T05:27:10;18.20;99.90
22698;DHT22;11516;51.612;7.510;2022-08-05T05:29:36;18.30;99.90
22698;DHT22;11516;51.612;7.510;2022-08-05T05:32:01;18.30;99.90
22698;DHT22;11516;51.612;7.510;2022-08-05T05:34:27;18.30;99.90
22698;DHT22;11516;51.612;7.510;2022-08-05T05:36:52;18.20;99.90
22698;DHT22;11516;51.612;7.510;2022-08-05T05:39:18;18.20;99.90
22698;DHT22;11516;51.612;7.510;2022-08-05T05:41:43;18.30;99.90
22698;DHT22;11516;51.612;7.510;2022-08-05T05:44:09;18.30;99.90
22698;DHT22;11516;51.612;7.510;2022-08-05T05:46:34;18.30;99.90
22698;DHT22;11516;51.612;7.510;2022-08-05T05:49:00;18.30;99.90
22698;DHT22;11516;51.612;7.510;2022-08-05T05:51:25;18.40;99.90
22698;DHT22;11516;51.612;7.510;2022-08-05T05:53:51;18.40;99.90
22698;DHT22;11516;51.612;7.510;2022-08-05T05:56:17;18.40;99.90
22698;DHT22;11516;51.612;7.510;2022-08-05T05:58:45;18.40;99.90
22698;DHT22;11516;51.612;7.510;2022-08-05T06:01:12;18.40;99.90
22698;DHT22;11516;51.612;7.510;2022-08-05T06:03:41;18.50;99.90
22698;DHT22;11516;51.612;7.510;2022-08-05T06:06:07;18.50;99.90
22698;DHT22;11516;51.612;7.510;2022-08-05T06:08:32;18.50;99.90
22698;DHT22;11516;51.612;7.510;2022-08-05T06:10:59;18.40;99.90
22698;DHT22;11516;51.612;7.510;2022-08-05T06:13:24;18.40;99.90
22698;DHT22;11516;51.612;7.510;2022-08-05T06:15:50;18.40;99.90
22698;DHT22;11516;51.612;7.510;2022-08-05T06:18:15;18.30;99.90
22698;DHT22;11516;51.612;7.510;2022-08-05T06:20:41;18.40;99.90
22698;DHT22;11516;51.612;7.510;2022-08-05T06:23:06;18.40;99.90
22698;DHT22;11516;51.612;7.510;2022-08-05T06:25:32;18.30;99.90
22698;DHT22;11516;51.612;7.510;2022-08-05T06:27:57;18.20;99.90
22698;DHT22;11516;51.612;7.510;2022-08-05T06:30:23;18.30;99.90
22698;DHT22;11516;51.612;7.510;2022-08-05T06:32:51;18.20;99.90
22698;DHT22;11516;51.612;7.510;2022-08-05T06:35:17;18.20;99.90
22698;DHT22;11516;51.612;7.510;2022-08-05T06:37:43;18.10;99.90
22698;DHT22;11516;51.612;7.510;2022-08-05T06:40:09;18.20;99.90
22698;DHT22;11516;51.612;7.510;2022-08-05T06:42:35;18.20;99.90
22698;DHT22;11516;51.612;7.510;2022-08-05T06:45:01;18.20;99.90
22698;DHT22;11516;51.612;7.510;2022-08-05T06:47:26;18.20;99.90
22698;DHT22;11516;51.612;7.510;2022-08-05T06:49:52;18.10;99.90
22698;DHT22;11516;51.612;7.510;2022-08-05T06:52:17;18.10;99.90
22698;DHT22;11516;51.612;7.510;2022-08-05T06:54:43;18.10;99.90
22698;DHT22;11516;51.612;7.510;2022-08-05T06:57:08;18.10;99.90
22698;DHT22;11516;51.612;7.510;2022-08-05T06:59:36;17.90;99.90
22698;DHT22;11516;51.612;7.510;2022-08-05T07:02:01;17.90;99.90
22698;DHT22;11516;51.612;7.510;2022-08-05T07:04:27;17.90;99.90
22698;DHT22;11516;51.612;7.510;2022-08-05T07:06:53;17.80;99.90
22698;DHT22;11516;51.612;7.510;2022-08-05T07:09:18;17.80;99.90
22698;DHT22;11516;51.612;7.510;2022-08-05T07:11:44;17.70;99.90
22698;DHT22;11516;51.612;7.510;2022-08-05T07:14:09;17.70;99.90
22698;DHT22;11516;51.612;7.510;2022-08-05T07:16:53;17.70;99.90
22698;DHT22;11516;51.612;7.510;2022-08-05T07:19:24;17.60;99.90
22698;DHT22;11516;51.612;7.510;2022-08-05T07:21:50;17.60;99.90
22698;DHT22;11516;51.612;7.510;2022-08-05T07:24:16;17.60;99.90
22698;DHT22;11516;51.612;7.510;2022-08-05T07:26:43;17.50;99.90
22698;DHT22;11516;51.612;7.510;2022-08-05T07:29:09;17.60;99.90
22698;DHT22;11516;51.612;7.510;2022-08-05T07:31:35;17.50;99.90
22698;DHT22;11516;51.612;7.510;2022-08-05T07:34:00;17.40;99.90
22698;DHT22;11516;51.612;7.510;2022-08-05T07:36:27;17.40;99.90
22698;DHT22;11516;51.612;7.510;2022-08-05T07:38:53;17.50;99.90
22698;DHT22;11516;51.612;7.510;2022-08-05T07:41:21;17.50;99.90
22698;DHT22;11516;51.612;7.510;2022-08-05T07:43:47;17.40;99.90
22698;DHT22;11516;51.612;7.510;2022-08-05T07:46:13;17.30;99.90
22698;DHT22;11516;51.612;7.510;2022-08-05T07:48:39;17.40;99.90
22698;DHT22;11516;51.612;7.510;2022-08-05T07:51:04;17.30;99.90
22698;DHT22;11516;51.612;7.510;2022-08-05T07:53:30;17.40;99.90
22698;DHT22;11516;51.612;7.510;2022-08-05T07:55:56;17.30;99.90
22698;DHT22;11516;51.612;7.510;2022-08-05T07:58:21;17.30;99.90
22698;DHT22;11516;51.612;7.510;2022-08-05T08:00:47;17.30;99.90
22698;DHT22;11516;51.612;7.510;2022-08-05T08:03:14;17.40;99.90
22698;DHT22;11516;51.612;7.510;2022-08-05T08:05:40;17.30;99.90
22698;DHT22;11516;51.612;7.510;2022-08-05T08:08:11;17.30;99.90
22698;DHT22;11516;51.612;7.510;2022-08-05T08:10:37;17.30;99.90
22698;DHT22;11516;51.612;7.510;2022-08-05T08:13:02;17.30;99.90
22698;DHT22;11516;51.612;7.510;2022-08-05T08:15:28;17.40;99.90
22698;DHT22;11516;51.612;7.510;2022-08-05T08:17:54;17.40;99.90
22698;DHT22;11516;51.612;7.510;2022-08-05T08:20:21;17.30;99.90
22698;DHT22;11516;51.612;7.510;2022-08-05T08:22:54;17.40;99.90
22698;DHT22;11516;51.612;7.510;2022-08-05T08:25:20;17.50;99.90
22698;DHT22;11516;51.612;7.510;2022-08-05T08:27:46;17.50;99.90
22698;DHT22;11516;51.612;7.510;2022-08-05T08:30:12;17.50;99.90
22698;DHT22;11516;51.612;7.510;2022-08-05T08:32:38;17.50;99.90
22698;DHT22;11516;51.612;7.510;2022-08-05T08:35:04;17.50;99.90
22698;DHT22;11516;51.612;7.510;2022-08-05T08:37:30;17.50;99.90
22698;DHT22;11516;51.612;7.510;2022-08-05T08:39:56;17.40;99.90
22698;DHT22;11516;51.612;7.510;2022-08-05T08:42:21;17.30;99.90
22698;DHT22;11516;51.612;7.510;2022-08-05T08:44:48;17.30;99.90
22698;DHT22;11516;51.612;7.510;2022-08-05T08:47:14;17.30;99.90
22698;DHT22;11516;51.612;7.510;2022-08-05T08:49:43;17.20;99.90
22698;DHT22;11516;51.612;7.510;2022-08-05T08:52:23;17.30;99.90
22698;DHT22;11516;51.612;7.510;2022-08-05T08:54:51;17.30;99.90
22698;DHT22;11516;51.612;7.510;2022-08-05T08:57:17;17.30;99.90
22698;DHT22;11516;51.612;7.510;2022-08-05T08:59:43;17.20;99.90
22698;DHT22;11516;51.612;7.510;2022-08-05T09:02:10;17.30;99.90
22698;DHT22;11516;51.612;7.510;2022-08-05T09:04:37;17.30;99.90
22698;DHT22;11516;51.612;7.510;2022-08-05T09:07:04;17.30;99.90
22698;DHT22;11516;51.612;7.510;2022-08-05T09:09:31;17.20;99.90
22698;DHT22;11516;51.612;7.510;2022-08-05T09:11:57;17.20;99.90
22698;DHT22;11516;51.612;7.510;2022-08-05T09:14:22;17.10;99.90
22698;DHT22;11516;51.612;7.510;2022-08-05T09:16:48;17.20;99.90
22698;DHT22;11516;51.612;7.510;2022-08-05T09:19:14;17.30;99.90
22698;DHT22;11516;51.612;7.510;2022-08-05T09:21:39;17.30;99.90
22698;DHT22;11516;51.612;7.510;2022-08-05T09:24:07;17.20;99.90
22698;DHT22;11516;51.612;7.510;2022-08-05T09:26:34;17.20;99.90
22698;DHT22;11516;51.612;7.510;2022-08-05T09:29:03;17.30;99.90
22698;DHT22;11516;51.612;7.510;2022-08-05T09:31:30;17.30;99.90
22698;DHT22;11516;51.612;7.510;2022-08-05T09:34:04;17.40;99.90
22698;DHT22;11516;51.612;7.510;2022-08-05T09:36:47;17.40;99.90
22698;DHT22;11516;51.612;7.510;2022-08-05T09:39:23;17.40;99.90
22698;DHT22;11516;51.612;7.510;2022-08-05T09:41:56;17.50;99.90
22698;DHT22;11516;51.612;7.510;2022-08-05T09:44:36;17.50;99.90
22698;DHT22;11516;51.612;7.510;2022-08-05T09:47:09;17.60;99.90
22698;DHT22;11516;51.612;7.510;2022-08-05T09:49:43;17.80;99.90
22698;DHT22;11516;51.612;7.510;2022-08-05T09:52:18;17.70;99.90
22698;DHT22;11516;51.612;7.510;2022-08-05T09:55:05;17.70;99.90
22698;DHT22;11516;51.612;7.510;2022-08-05T09:57:43;17.70;99.90
22698;DHT22;11516;51.612;7.510;2022-08-05T10:00:18;17.70;99.90
22698;DHT22;11516;51.612;7.510;2022-08-05T10:02:49;17.70;99.90
22698;DHT22;11516;51.612;7.510;2022-08-05T10:05:20;17.80;99.90
22698;DHT22;11516;51.612;7.510;2022-08-05T10:10:37;17.80;99.90
22698;DHT22;11516;51.612;7.510;2022-08-05T10:13:04;17.90;99.90
22698;DHT22;11516;51.612;7.510;2022-08-05T10:15:33;17.90;99.90
22698;DHT22;11516;51.612;7.510;2022-08-05T10:18:18;17.80;99.90
22698;DHT22;11516;51.612;7.510;2022-08-05T10:20:48;17.70;99.90
22698;DHT22;11516;51.612;7.510;2022-08-05T10:25:43;17.60;99.90
22698;DHT22;11516;51.612;7.510;2022-08-05T10:28:08;17.50;99.90
22698;DHT22;11516;51.612;7.510;2022-08-05T10:30:35;17.50;99.90
22698;DHT22;11516;51.612;7.510;2022-08-05T10:33:02;17.50;99.90
22698;DHT22;11516;51.612;7.510;2022-08-05T10:35:28;17.50;99.90
22698;DHT22;11516;51.612;7.510;2022-08-05T10:37:54;17.60;99.90
22698;DHT22;11516;51.612;7.510;2022-08-05T10:40:51;17.60;99.90
22698;DHT22;11516;51.612;7.510;2022-08-05T10:45:57;17.40;99.90
22698;DHT22;11516;51.612;7.510;2022-08-05T10:48:37;17.40;99.90
22698;DHT22;11516;51.612;7.510;2022-08-05T10:51:21;17.50;99.90
22698;DHT22;11516;51.612;7.510;2022-08-05T10:56:26;17.50;99.90
22698;DHT22;11516;51.612;7.510;2022-08-05T11:01:47;17.60;99.90
22698;DHT22;11516;51.612;7.510;2022-08-05T11:04:20;17.70;99.90
22698;DHT22;11516;51.612;7.510;2022-08-05T11:09:47;17.90;99.90
22698;DHT22;11516;51.612;7.510;2022-08-05T11:15:16;18.10;99.90
22698;DHT22;11516;51.612;7.510;2022-08-05T11:17:46;18.20;99.90
22698;DHT22;11516;51.612;7.510;2022-08-05T11:23:30;18.20;99.90
22698;DHT22;11516;51.612;7.510;2022-08-05T11:26:03;18.10;99.90
22698;DHT22;11516;51.612;7.510;2022-08-05T11:33:33;18.50;99.90
22698;DHT22;11516;51.612;7.510;2022-08-05T11:36:05;19.00;99.90
22698;DHT22;11516;51.612;7.510;2022-08-05T11:38:51;19.90;99.90
22698;DHT22;11516;51.612;7.510;2022-08-05T11:41:23;19.90;99.90
22698;DHT22;11516;51.612;7.510;2022-08-05T11:43:59;19.60;99.90
22698;DHT22;11516;51.612;7.510;2022-08-05T11:46:26;20.00;99.90
22698;DHT22;11516;51.612;7.510;2022-08-05T11:48:53;20.00;99.90
22698;DHT22;11516;51.612;7.510;2022-08-05T11:51:19;19.90;99.90
22698;DHT22;11516;51.612;7.510;2022-08-05T11:53:46;20.20;99.90
22698;DHT22;11516;51.612;7.510;2022-08-05T11:56:12;20.50;99.90
22698;DHT22;11516;51.612;7.510;2022-08-05T11:58:40;20.90;99.90
22698;DHT22;11516;51.612;7.510;2022-08-05T12:01:11;20.80;99.90
22698;DHT22;11516;51.612;7.510;2022-08-05T12:03:48;21.00;99.90
22698;DHT22;11516;51.612;7.510;2022-08-05T12:06:17;21.20;99.90
22698;DHT22;11516;51.612;7.510;2022-08-05T12:08:48;21.20;99.90
22698;DHT22;11516;51.612;7.510;2022-08-05T12:11:21;21.10;99.90
22698;DHT22;11516;51.612;7.510;2022-08-05T12:13:54;21.30;99.90
22698;DHT22;11516;51.612;7.510;2022-08-05T12:16:20;21.80;99.90
22698;DHT22;11516;51.612;7.510;2022-08-05T12:18:46;21.90;99.90
22698;DHT22;11516;51.612;7.510;2022-08-05T12:21:13;21.60;99.90
22698;DHT22;11516;51.612;7.510;2022-08-05T12:23:39;21.50;99.90
22698;DHT22;11516;51.612;7.510;2022-08-05T12:26:04;21.30;99.90
22698;DHT22;11516;51.612;7.510;2022-08-05T12:28:33;21.70;99.90
22698;DHT22;11516;51.612;7.510;2022-08-05T12:30:59;21.40;99.90
22698;DHT22;11516;51.612;7.510;2022-08-05T12:33:25;21.20;99.90
22698;DHT22;11516;51.612;7.510;2022-08-05T12:35:53;20.90;99.90
22698;DHT22;11516;51.612;7.510;2022-08-05T12:38:20;20.60;99.90
22698;DHT22;11516;51.612;7.510;2022-08-05T12:40:46;20.40;99.90
22698;DHT22;11516;51.612;7.510;2022-08-05T12:43:12;20.90;99.90
22698;DHT22;11516;51.612;7.510;2022-08-05T12:45:52;21.60;99.90
22698;DHT22;11516;51.612;7.510;2022-08-05T12:48:18;21.70;99.90
22698;DHT22;11516;51.612;7.510;2022-08-05T12:50:43;21.30;99.90
22698;DHT22;11516;51.612;7.510;2022-08-05T12:53:14;20.80;99.90
22698;DHT22;11516;51.612;7.510;2022-08-05T12:55:40;20.40;99.90
22698;DHT22;11516;51.612;7.510;2022-08-05T12:58:07;20.50;99.90
22698;DHT22;11516;51.612;7.510;2022-08-05T13:00:32;20.50;99.90
22698;DHT22;11516;51.612;7.510;2022-08-05T13:03:06;20.60;99.90
22698;DHT22;11516;51.612;7.510;2022-08-05T13:05:34;20.90;99.90
22698;DHT22;11516;51.612;7.510;2022-08-05T13:08:03;21.00;99.90
22698;DHT22;11516;51.612;7.510;2022-08-05T13:10:30;21.10;99.90
22698;DHT22;11516;51.612;7.510;2022-08-05T13:12:59;21.10;99.90
22698;DHT22;11516;51.612;7.510;2022-08-05T13:15:29;20.90;99.90
22698;DHT22;11516;51.612;7.510;2022-08-05T13:17:57;20.80;99.90
22698;DHT22;11516;51.612;7.510;2022-08-05T13:20:32;20.70;99.90
22698;DHT22;11516;51.612;7.510;2022-08-05T13:22:58;21.00;99.90
22698;DHT22;11516;51.612;7.510;2022-08-05T13:25:24;21.10;99.90
22698;DHT22;11516;51.612;7.510;2022-08-05T13:27:53;21.30;99.90
22698;DHT22;11516;51.612;7.510;2022-08-05T13:30:22;21.50;99.90
22698;DHT22;11516;51.612;7.510;2022-08-05T13:32:50;21.60;99.90
22698;DHT22;11516;51.612;7.510;2022-08-05T13:35:17;21.80;99.90
22698;DHT22;11516;51.612;7.510;2022-08-05T13:37:43;22.10;99.90
22698;DHT22;11516;51.612;7.510;2022-08-05T13:40:10;22.70;99.90
22698;DHT22;11516;51.612;7.510;2022-08-05T13:42:36;23.10;99.10
22698;DHT22;11516;51.612;7.510;2022-08-05T13:45:02;23.30;98.30
22698;DHT22;11516;51.612;7.510;2022-08-05T13:47:28;23.40;99.00
22698;DHT22;11516;51.612;7.510;2022-08-05T13:49:54;23.40;95.60
22698;DHT22;11516;51.612;7.510;2022-08-05T13:52:21;23.20;95.60
22698;DHT22;11516;51.612;7.510;2022-08-05T13:54:47;22.90;94.40
22698;DHT22;11516;51.612;7.510;2022-08-05T13:57:13;22.70;96.50
22698;DHT22;11516;51.612;7.510;2022-08-05T13:59:40;22.30;95.50
22698;DHT22;11516;51.612;7.510;2022-08-05T14:02:07;22.00;95.90
22698;DHT22;11516;51.612;7.510;2022-08-05T14:04:39;21.90;96.80
22698;DHT22;11516;51.612;7.510;2022-08-05T14:07:28;21.90;97.00
22698;DHT22;11516;51.612;7.510;2022-08-05T14:09:54;21.60;98.50
22698;DHT22;11516;51.612;7.510;2022-08-05T14:12:19;21.50;98.10
22698;DHT22;11516;51.612;7.510;2022-08-05T14:14:45;21.40;98.30
22698;DHT22;11516;51.612;7.510;2022-08-05T14:17:11;21.40;97.50
22698;DHT22;11516;51.612;7.510;2022-08-05T14:19:37;21.50;98.50
22698;DHT22;11516;51.612;7.510;2022-08-05T14:22:03;21.60;97.30
22698;DHT22;11516;51.612;7.510;2022-08-05T14:24:29;21.50;97.20
22698;DHT22;11516;51.612;7.510;2022-08-05T14:26:54;21.50;97.00
22698;DHT22;11516;51.612;7.510;2022-08-05T14:29:20;21.50;97.70
22698;DHT22;11516;51.612;7.510;2022-08-05T14:31:46;21.50;98.40
22698;DHT22;11516;51.612;7.510;2022-08-05T14:34:12;21.60;97.70
22698;DHT22;11516;51.612;7.510;2022-08-05T14:36:38;21.70;97.80
22698;DHT22;11516;51.612;7.510;2022-08-05T14:39:04;21.80;97.30
22698;DHT22;11516;51.612;7.510;2022-08-05T14:41:32;21.70;97.80
22698;DHT22;11516;51.612;7.510;2022-08-05T14:43:58;21.90;97.10
22698;DHT22;11516;51.612;7.510;2022-08-05T14:46:25;22.00;96.90
22698;DHT22;11516;51.612;7.510;2022-08-05T14:48:50;21.90;96.50
22698;DHT22;11516;51.612;7.510;2022-08-05T14:51:17;21.90;96.50
22698;DHT22;11516;51.612;7.510;2022-08-05T14:53:42;22.00;95.70
22698;DHT22;11516;51.612;7.510;2022-08-05T14:56:08;22.00;95.60
22698;DHT22;11516;51.612;7.510;2022-08-05T14:58:33;22.00;95.80
22698;DHT22;11516;51.612;7.510;2022-08-05T15:00:59;22.00;95.40
22698;DHT22;11516;51.612;7.510;2022-08-05T15:03:28;22.00;95.90
22698;DHT22;11516;51.612;7.510;2022-08-05T15:05:54;22.10;95.60
22698;DHT22;11516;51.612;7.510;2022-08-05T15:08:20;22.20;95.70
22698;DHT22;11516;51.612;7.510;2022-08-05T15:10:45;22.20;95.60
22698;DHT22;11516;51.612;7.510;2022-08-05T15:13:11;22.20;95.40
22698;DHT22;11516;51.612;7.510;2022-08-05T15:15:36;22.50;95.20
22698;DHT22;11516;51.612;7.510;2022-08-05T15:18:02;22.60;94.20
22698;DHT22;11516;51.612;7.510;2022-08-05T15:20:27;22.60;92.70
22698;DHT22;11516;51.612;7.510;2022-08-05T15:22:53;22.70;93.30
22698;DHT22;11516;51.612;7.510;2022-08-05T15:25:18;22.70;92.40
22698;DHT22;11516;51.612;7.510;2022-08-05T15:27:44;22.80;92.50
22698;DHT22;11516;51.612;7.510;2022-08-05T15:30:10;22.70;91.60
22698;DHT22;11516;51.612;7.510;2022-08-05T15:32:36;22.90;91.20
22698;DHT22;11516;51.612;7.510;2022-08-05T15:35:02;22.90;89.80
22698;DHT22;11516;51.612;7.510;2022-08-05T15:37:28;22.90;80.60
22698;DHT22;11516;51.612;7.510;2022-08-05T15:39:54;22.80;77.60
22698;DHT22;11516;51.612;7.510;2022-08-05T15:42:22;22.70;76.20
22698;DHT22;11516;51.612;7.510;2022-08-05T15:44:48;22.90;74.70
22698;DHT22;11516;51.612;7.510;2022-08-05T15:47:14;22.80;73.50
22698;DHT22;11516;51.612;7.510;2022-08-05T15:49:40;22.90;70.40
22698;DHT22;11516;51.612;7.510;2022-08-05T15:52:06;23.00;69.70
22698;DHT22;11516;51.612;7.510;2022-08-05T15:54:32;23.10;66.50
22698;DHT22;11516;51.612;7.510;2022-08-05T15:56:58;23.20;66.80
22698;DHT22;11516;51.612;7.510;2022-08-05T15:59:24;23.10;66.50
22698;DHT22;11516;51.612;7.510;2022-08-05T16:01:50;23.30;65.80
22698;DHT22;11516;51.612;7.510;2022-08-05T16:04:16;23.30;65.80